Weather History for Buffalo, WY

Change the Weather History Date:

Sunday, April 21, 2013

  Actual Average Record
Temperature  
Mean Temperature 35 °F 45 °F  
Max Temperature 45 °F 56 °F 72 °F (2009)
Min Temperature 25 °F 34 °F 14 °F (2008)
Degree Days  
Heating Degree Days 30 20  
Month to date heating degree days 610 488  
Since 1 July heating degree days 6494 6678  
Cooling Degree Days 0 0  
Month to date cooling degree days 0 0  
Year to date cooling degree days 0 0  
Moisture  
Dew Point 30 °F    
Average Humidity 79    
Maximum Humidity 100    
Minimum Humidity 57    
Precipitation  
Precipitation 0.24 in 0.04 in 0.24 in (2013)
Month to date precipitation 0.60 0.70  
Year to date precipitation 1.29 2.39  
Sea Level Pressure  
Sea Level Pressure 30.05 in    
Wind  
Wind Speed 10 mph (North)    
Max Wind Speed 22 mph    
Max Gust Speed 28 mph    
Visibility 4 miles    
Events Fog , Rain , Snow    
T = Trace of Precipitation, MM = Missing Value Source: NWS Daily Summary

Daily Weather History Graph

Daily Weather History Graph

Search for Another Location

Airport:

Trip Planner

Search our weather history database for the weather conditions in past years. The results will help you decide how hot, cold, wet, or windy it might be!

Date:

Astronomy

Apr. 21, 2013 Rise Set
Actual Time 6:12 AM MDT 7:59 PM MDT
Civil Twilight 5:41 AM MDT 8:30 PM MDT
Nautical Twilight 5:04 AM MDT 9:07 PM MDT
Astronomical Twilight 4:23 AM MDT 9:48 PM MDT
Moon 3:38 PM MDT (4/21) 3:46 AM MDT (4/21)
Length of Visible Light 14h 48m
Length of Day
13h 46m
Waxing Gibbous, 80% of the Moon is Illuminated
Apr 21
Waxing Gibbous
Apr 25
Full
May 2
Last Quarter
May 9
New
May 17
First Quarter

Hourly Weather History & Observations

Time (MDT) Temp. Windchill Dew Point Humidity Pressure Visibility Wind Dir Wind Speed Gust Speed Precip Events Conditions
12:53 AM 41.0 °F 35.2 °F 28.0 °F 60% 29.93 in 10.0 mi NW 9.2 mph - N/A   Mostly Cloudy
1:53 AM 43.0 °F 38.2 °F 28.0 °F 56% 29.92 in 10.0 mi WNW 8.1 mph - N/A   Overcast
2:53 AM 41.0 °F 34.7 °F 28.9 °F 62% 29.95 in 10.0 mi NW 10.4 mph - N/A   Overcast
3:53 AM 37.9 °F 30.0 °F 32.0 °F 79% 29.96 in 10.0 mi NW 12.7 mph - N/A   Mostly Cloudy
4:53 AM 37.0 °F 32.4 °F 30.0 °F 76% 29.98 in 10.0 mi WNW 5.8 mph - N/A   Overcast
5:53 AM 32.0 °F 27.5 °F 28.0 °F 85% 30.02 in 10.0 mi WSW 4.6 mph - N/A   Scattered Clouds
6:53 AM 39.0 °F 36.8 °F 28.9 °F 67% 30.00 in 10.0 mi SSW 3.5 mph - N/A   Mostly Cloudy
7:53 AM 39.9 °F 36.7 °F 30.9 °F 70% 30.04 in 10.0 mi NNE 4.6 mph - N/A   Overcast
8:53 AM 41.0 °F 35.2 °F 32.0 °F 70% 30.05 in 10.0 mi NNW 9.2 mph - N/A   Overcast
9:53 AM 44.1 °F 39.5 °F 33.1 °F 65% 30.01 in 10.0 mi North 8.1 mph - N/A   Overcast
10:53 AM 39.9 °F 32.9 °F 34.0 °F 79% 30.05 in 10.0 mi NNW 11.5 mph 23.0 mph N/A   Overcast
11:03 AM 39.2 °F 32.0 °F 33.8 °F 81% 30.05 in 10.0 mi North 11.5 mph - 0.00 in Rain Light Rain
11:20 AM 39.2 °F 32.0 °F 33.8 °F 81% 30.05 in 10.0 mi North 11.5 mph - 0.00 in   Overcast
11:53 AM 39.9 °F 32.5 °F 33.1 °F 77% 30.05 in 10.0 mi North 12.7 mph 24.2 mph 0.00 in   Overcast
12:03 PM 39.2 °F 29.6 °F 33.8 °F 81% 30.05 in 10.0 mi North 19.6 mph 24.2 mph N/A   Overcast
12:42 PM 35.6 °F 24.5 °F 32.0 °F 87% 30.05 in 2.0 mi North 20.7 mph 25.3 mph 0.00 in Snow Light Snow
12:45 PM 35.6 °F 24.5 °F 32.0 °F 87% 30.05 in 1.8 mi North 20.7 mph 25.3 mph 0.00 in Snow Light Snow
12:51 PM 35.6 °F 24.5 °F 32.0 °F 87% 30.05 in 3.0 mi North 20.7 mph 25.3 mph 0.00 in Snow Light Snow
12:53 PM 35.1 °F 24.1 °F 32.0 °F 89% 30.08 in 4.0 mi North 19.6 mph 25.3 mph 0.00 in Snow Light Snow
1:00 PM 35.6 °F 24.5 °F 32.0 °F 87% 30.05 in 7.0 mi North 20.7 mph 24.2 mph 0.00 in Snow Light Snow
1:11 PM 35.6 °F 27.1 °F 32.0 °F 87% 30.05 in 1.8 mi NNW 12.7 mph 24.2 mph 0.00 in Snow Light Snow
1:23 PM 35.6 °F 27.1 °F 33.8 °F 93% 30.05 in 2.0 mi North 12.7 mph 24.2 mph 0.00 in Snow Light Snow
1:32 PM 35.6 °F 26.6 °F 33.8 °F 93% 30.05 in 1.5 mi North 13.8 mph 25.3 mph 0.00 in Snow Light Snow
1:44 PM 35.6 °F 26.6 °F 33.8 °F 93% 30.05 in 2.5 mi NNE 13.8 mph 23.0 mph 0.00 in Snow Light Snow
1:53 PM 35.1 °F 26.4 °F 33.1 °F 92% 30.06 in 3.0 mi NE 12.7 mph - 0.01 in Snow Light Snow
2:05 PM 35.6 °F 27.1 °F 33.8 °F 93% 30.04 in 1.8 mi NNE 12.7 mph - 0.00 in Snow Light Snow
2:26 PM 35.6 °F 27.1 °F 32.0 °F 87% 30.05 in 2.5 mi NNE 12.7 mph - 0.00 in Snow Light Snow
2:33 PM 35.6 °F 27.5 °F 32.0 °F 87% 30.05 in 2.0 mi North 11.5 mph 19.6 mph 0.00 in Snow Light Snow
2:36 PM 33.8 °F 26.4 °F 30.2 °F 87% 30.05 in 1.8 mi North 9.2 mph - 0.00 in Snow Light Snow
2:40 PM 33.8 °F 25.3 °F 30.2 °F 87% 30.05 in 1.8 mi NNE 11.5 mph - 0.00 in Snow Light Snow
2:53 PM 35.1 °F 27.9 °F 33.1 °F 92% 30.07 in 1.5 mi North 9.2 mph 20.7 mph 0.00 in Snow Light Snow
3:14 PM 32.0 °F 22.1 °F 30.2 °F 93% 30.05 in 1.0 mi NNW 13.8 mph 25.3 mph 0.01 in Snow Light Snow
3:24 PM 33.8 °F 23.9 °F 30.2 °F 87% 30.05 in 1.8 mi NNW 15.0 mph 25.3 mph 0.01 in Snow Light Snow
3:32 PM 33.8 °F 24.3 °F 30.2 °F 87% 30.05 in 2.0 mi North 13.8 mph 25.3 mph 0.01 in Snow Light Snow
3:37 PM 33.8 °F 24.8 °F 30.2 °F 87% 30.05 in 1.0 mi North 12.7 mph 23.0 mph 0.01 in Snow Light Snow
3:53 PM 32.0 °F 23.0 °F 30.0 °F 92% 30.09 in 0.8 mi North 11.5 mph 19.6 mph 0.01 in Snow Light Snow
4:09 PM 32.0 °F 23.0 °F 30.2 °F 93% 30.04 in 0.8 mi North 11.5 mph - 0.00 in Snow Light Snow
4:23 PM 32.0 °F 23.6 °F 28.4 °F 87% 30.04 in 1.2 mi NNE 10.4 mph - 0.00 in Snow Light Snow
4:35 PM 33.8 °F 25.3 °F 30.2 °F 87% 30.04 in 1.0 mi NNE 11.5 mph - 0.00 in Snow Light Snow
4:51 PM 32.0 °F 23.6 °F 28.4 °F 87% 30.04 in 1.8 mi NNE 10.4 mph - 0.00 in Snow Light Snow
4:52 PM 32.0 °F 23.6 °F 28.9 °F 88% 30.09 in 2.0 mi NNE 10.4 mph - 0.00 in Snow Light Snow
5:11 PM 32.0 °F 24.8 °F 28.4 °F 87% 30.04 in 3.0 mi NE 8.1 mph - 0.00 in Snow Light Snow
5:20 PM 32.0 °F 24.8 °F 28.4 °F 87% 30.04 in 1.8 mi NE 8.1 mph - 0.00 in Snow Light Snow
5:30 PM 30.2 °F 21.9 °F 28.4 °F 93% 30.04 in 2.0 mi NNE 9.2 mph - 0.00 in Snow Light Snow
5:47 PM 30.2 °F 21.3 °F 28.4 °F 93% 30.05 in 3.0 mi NNE 10.4 mph - 0.00 in   Overcast
5:53 PM 30.9 °F 22.2 °F 28.0 °F 89% 30.12 in 3.0 mi NNE 10.4 mph - 0.00 in   Overcast
6:07 PM 30.2 °F 21.9 °F 28.4 °F 93% 30.05 in 2.5 mi NNE 9.2 mph - 0.00 in Snow Light Snow
6:20 PM 30.2 °F 21.3 °F 28.4 °F 93% 30.06 in 1.5 mi NNE 10.4 mph - 0.00 in Snow Light Snow
6:30 PM 30.2 °F 21.3 °F 28.4 °F 93% 30.06 in 2.0 mi NNE 10.4 mph - 0.00 in Snow Light Snow
6:38 PM 30.2 °F 21.9 °F 28.4 °F 93% 30.06 in 2.0 mi NNE 9.2 mph - 0.00 in   Overcast
6:45 PM 30.2 °F 22.6 °F 28.4 °F 93% 30.06 in 1.2 mi NNE 8.1 mph - 0.00 in Snow Light Snow
6:53 PM 30.0 °F 21.1 °F 28.0 °F 92% 30.10 in 1.5 mi NE 10.4 mph - 0.00 in Snow Light Snow
7:18 PM 28.4 °F 21.2 °F 28.4 °F 100% 30.06 in 0.8 mi ENE 6.9 mph - 0.00 in Snow Light Snow
7:53 PM 28.9 °F 22.8 °F 28.0 °F 96% 30.09 in 0.5 mi NE 5.8 mph - 0.01 in Fog , Snow Light Snow
8:10 PM 28.4 °F 21.2 °F 26.6 °F 93% 30.05 in 1.2 mi NE 6.9 mph - 0.01 in Snow Light Snow
8:29 PM 28.4 °F 24.6 °F 26.6 °F 93% 30.05 in 2.0 mi ENE 3.5 mph - 0.02 in Snow Light Snow
8:41 PM 28.4 °F 23.3 °F 26.6 °F 93% 30.05 in 1.0 mi NE 4.6 mph - 0.02 in Snow Light Snow
8:53 PM 28.0 °F 24.2 °F 26.1 °F 92% 30.11 in 1.2 mi Variable 3.5 mph - 0.02 in Snow Light Snow
9:13 PM 28.4 °F 19.7 °F 26.6 °F 93% 30.06 in 0.8 mi NNE 9.2 mph - 0.01 in Snow Light Snow
9:23 PM 28.4 °F 20.4 °F 26.6 °F 93% 30.08 in 0.8 mi North 8.1 mph - 0.02 in Snow Light Snow
9:39 PM 28.4 °F 19.7 °F 24.8 °F 86% 30.08 in 0.8 mi NNE 9.2 mph - 0.04 in Snow Light Snow
9:53 PM 27.0 °F 15.2 °F 25.0 °F 92% 30.13 in 0.8 mi NNE 15.0 mph 21.9 mph 0.05 in Snow Light Snow
10:33 PM 26.6 °F 16.8 °F 24.8 °F 93% 30.11 in 0.5 mi North 10.4 mph - 0.02 in Fog , Snow Snow
10:53 PM 26.1 °F 14.5 °F 24.1 °F 92% 30.17 in 0.5 mi NNW 13.8 mph 24.2 mph 0.04 in Fog , Snow Snow
11:45 PM 24.8 °F 13.4 °F 23.0 °F 93% 30.10 in 0.2 mi NNW 12.7 mph - 0.04 in Fog , Snow Heavy Snow
11:53 PM 25.0 °F 13.1 °F 23.0 °F 92% 30.17 in 0.2 mi NNW 13.8 mph - 0.04 in Fog , Snow Heavy Snow